Hlavní strana
METAR-TAF:

METAR-TAF

Letiště :

Kostanay, Kazachstán

zeměpisná šířka: 53-12-23N, zeměpisná délka: 063-33-03E, výška: 182 m

Aktuální stav počasí

Zpráva byla vytvořena před 27 minutami, v 08:00 UTC
Jižní vítr 4 kt
Teplota -10°C
Vlhkost vzduchu 92%
Tlak 1019 hPa
Viditelnost: 8000 m
Skoro jasno ve výšce 100 ft

METAR: UAUU 110800Z 17002MPS 8000 FEW001 M10/M11 Q1019 R33/190055 TEMPO 2000 BR SCT002 RMK QBB050 QFE749/0998

Čas: 14:27 (08:27 UTC)

Předpověď počasí

Zpráva byla vytvořena před 3 hodinami a 27 minutami, v 05:00 UTC
Předpověď platná od 11 v 06 UTC do 11 v 15 UTC
vítr z různých směrů 4 kt
Viditelnost: 3100 m
Skoro jasno ve výšce 200 ft
kouřmo
Dočasný
od 11 v 06 UTC do 11 v 09 UTC
Jižní vítr 6 kt
Viditelnost: 0300 m
ve výšce 100 ft
mrznoucí mlha
Změna
od 11 v 09 UTC do 11 v 10 UTC
Oblačno až skoro zataženo ve výšce 1100 ft

TAF: UAUU 110500Z 1106/1115 VRB02MPS 3100 BR FEW002 TEMPO 1106/1109 18003MPS 0300 FZFG VV001 BECMG 1109/1110 BKN011

Stav a předpovědi počasí z více než 4 000 letišť (zprávy METAR a TAF).

Červené a žluté tečky na mapě představují dostupné meteorologické stanice.

Když kurzor umístíte na tečku, zobrazí se název stanice.

Pak kliknutím zobrazíte stav a předpověď počasí.

Chcete-li změnit mapu, kliknutím na zelené tlačítko se znaménkem +mapu přiblížíte, kliknutím na zelené tlačítko se znaménkem – mapu oddálíte a kliknutím na zelené šipky přejdete na sousední mapy.


METAR-TAF: